Time,TemperatureF,DewpointF,PressureIn,WindDirection,WindDirectionDegrees,WindSpeedMPH,WindSpeedGustMPH,Humidity,HourlyPrecipIn,Conditions,Clouds,dailyrainin,SoftwareType,DateUTC
2013-02-16 00:00:00,39.4,32.4,29.97,North,0,4.6,4.6,76,0.00,CLR,,0.00,WeatherDisplay:10.37,2013-02-16 05:00:00,
2013-02-16 00:05:00,39.2,32.3,29.97,NNE,22,4.6,4.6,76,0.00,CLR,,0.00,WeatherDisplay:10.37,2013-02-16 05:05:00,
2013-02-16 00:11:00,39.0,32.1,29.97,North,0,6.9,6.9,76,0.00,CLR,,0.00,WeatherDisplay:10.37,2013-02-16 05:11:00,
2013-02-16 00:16:00,39.0,32.1,29.96,NE,45,3.5,3.5,76,0.00,CLR,,0.00,WeatherDisplay:10.37,2013-02-16 05:16:00,
2013-02-16 00:21:00,39.0,32.1,29.97,NE,45,6.9,6.9,76,0.00,CLR,,0.00,WeatherDisplay:10.37,2013-02-16 05:21:00,
2013-02-16 00:23:00,38.8,31.9,29.97,ENE,68,5.8,5.8,76,0.00,CLR,,0.00,WeatherDisplay:10.37,2013-02-16 05:23:00,
2013-02-16 00:28:00,38.8,31.9,29.97,ENE,68,5.8,5.8,76,0.00,CLR,,0.00,WeatherDisplay:10.37,2013-02-16 05:28:00,
2013-02-16 00:33:00,38.7,31.7,29.97,NE,45,4.6,4.6,76,0.00,CLR,,0.00,WeatherDisplay:10.37,2013-02-16 05:33:00,
2013-02-16 00:38:00,38.5,31.9,29.97,NNE,22,4.7,4.7,77,0.00,CLR,,0.00,WeatherDisplay:10.37,2013-02-16 05:38:00,
2013-02-16 00:43:00,38.5,31.9,29.97,NNE,22,2.7,2.7,77,0.00,CLR,,0.00,WeatherDisplay:10.37,2013-02-16 05:43:00,
2013-02-16 00:48:00,38.5,31.9,29.97,North,0,4.6,4.6,77,0.00,CLR,,0.00,WeatherDisplay:10.37,2013-02-16 05:48:00,
2013-02-16 00:53:00,38.5,31.9,29.97,NE,45,2.3,2.3,77,0.00,CLR,,0.00,WeatherDisplay:10.37,2013-02-16 05:53:00,
2013-02-16 00:58:00,38.5,31.9,29.97,NE,45,0.0,0.0,77,0.00,CLR,,0.00,WeatherDisplay:10.37,2013-02-16 05:58:00,
2013-02-16 01:03:00,38.5,31.9,29.97,NE,45,0.0,0.0,77,0.00,BKN,,0.00,WeatherDisplay:10.37,2013-02-16 06:03:00,
2013-02-16 01:08:00,38.7,31.7,29.97,NE,45,0.0,0.0,76,0.00,BKN,,0.00,WeatherDisplay:10.37,2013-02-16 06:08:00,
2013-02-16 01:13:00,38.5,31.6,29.97,NE,45,0.0,0.0,76,0.00,BKN,,0.00,WeatherDisplay:10.37,2013-02-16 06:13:00,
2013-02-16 01:18:00,38.5,31.6,29.97,NE,45,1.1,1.1,76,0.00,BKN,,0.00,WeatherDisplay:10.37,2013-02-16 06:18:00,
2013-02-16 01:23:00,38.5,31.6,29.96,NNE,22,2.0,2.0,76,0.00,BKN,,0.00,WeatherDisplay:10.37,2013-02-16 06:23:00,
2013-02-16 01:29:00,38.5,31.6,29.96,NE,45,2.3,2.3,76,0.00,BKN,,0.00,WeatherDisplay:10.37,2013-02-16 06:29:00,
2013-02-16 01:34:00,38.3,31.4,29.96,NE,45,3.5,3.5,76,0.00,BKN,,0.00,WeatherDisplay:10.37,2013-02-16 06:34:00,
2013-02-16 01:39:00,38.1,30.9,29.96,ENE,68,2.3,0.0,75,0.00,BKN,,0.00,WeatherDisplay:10.37,2013-02-16 06:39:00,
2013-02-16 01:44:00,37.9,30.7,29.96,ENE,68,2.3,2.3,75,0.00,BKN,,0.00,WeatherDisplay:10.37,2013-02-16 06:44:00,
2013-02-16 01:49:00,37.9,30.7,29.96,NE,45,0.0,0.0,75,0.00,BKN,,0.00,WeatherDisplay:10.37,2013-02-16 06:49:00,
2013-02-16 01:54:00,37.9,30.7,29.96,NNE,22,0.0,0.0,75,0.00,BKN,,0.00,WeatherDisplay:10.37,2013-02-16 06:54:00,
2013-02-16 01:59:00,37.9,30.7,29.95,North,0,2.3,2.3,75,0.00,BKN,,0.00,WeatherDisplay:10.37,2013-02-16 06:59:00,
2013-02-16 02:04:00,37.8,30.5,29.95,North,0,0.0,0.0,75,0.00,OVC,,0.00,WeatherDisplay:10.37,2013-02-16 07:04:00,
2013-02-16 02:09:00,37.8,30.5,29.95,ENE,68,1.1,1.1,75,0.00,OVC,,0.00,WeatherDisplay:10.37,2013-02-16 07:09:00,
2013-02-16 02:14:00,37.6,30.4,29.95,NNE,22,4.6,4.6,75,0.00,OVC,,0.00,WeatherDisplay:10.37,2013-02-16 07:14:00,
2013-02-16 02:19:00,37.4,30.2,29.95,NNE,22,5.8,5.8,75,0.00,OVC,,0.00,WeatherDisplay:10.37,2013-02-16 07:19:00,
2013-02-16 02:24:00,37.4,30.2,29.95,NE,45,4.6,4.6,75,0.00,OVC,,0.00,WeatherDisplay:10.37,2013-02-16 07:24:00,
2013-02-16 02:29:00,37.4,30.2,29.95,North,0,4.6,4.6,75,0.00,OVC,,0.00,WeatherDisplay:10.37,2013-02-16 07:29:00,
2013-02-16 02:34:00,37.4,30.2,29.95,North,0,5.8,5.8,75,0.00,OVC,,0.00,WeatherDisplay:10.37,2013-02-16 07:34:00,
2013-02-16 02:39:00,37.4,30.2,29.95,NE,45,3.5,3.5,75,0.00,OVC,,0.00,WeatherDisplay:10.37,2013-02-16 07:39:00,
2013-02-16 02:45:00,37.2,30.0,29.94,NNE,22,3.5,3.5,75,0.00,OVC,,0.00,WeatherDisplay:10.37,2013-02-16 07:45:00,
2013-02-16 02:50:00,37.2,29.7,29.94,NNW,338,3.5,3.5,74,0.00,OVC,,0.00,WeatherDisplay:10.37,2013-02-16 07:50:00,
2013-02-16 02:55:00,37.2,29.7,29.94,NNW,338,0.0,0.0,74,0.00,OVC,,0.00,WeatherDisplay:10.37,2013-02-16 07:55:00,
2013-02-16 03:00:00,37.2,29.7,29.94,North,353,0.0,6.0,74,0.00,OVC,,0.00,WeatherDisplay:10.37,2013-02-16 08:00:00,
2013-02-16 03:05:00,37.2,29.7,29.93,NE,45,0.0,0.0,74,0.00,OVC,,0.00,WeatherDisplay:10.37,2013-02-16 08:05:00,
2013-02-16 03:10:00,37.2,30.0,29.94,NE,45,0.0,0.0,75,0.00,OVC,,0.00,WeatherDisplay:10.37,2013-02-16 08:10:00,
2013-02-16 03:15:00,37.2,30.0,29.93,NNW,338,3.5,3.5,75,0.00,OVC,,0.00,WeatherDisplay:10.37,2013-02-16 08:15:00,
2013-02-16 03:20:00,37.2,30.0,29.93,North,0,3.8,3.8,75,0.00,OVC,,0.00,WeatherDisplay:10.37,2013-02-16 08:20:00,
2013-02-16 03:25:00,37.2,29.7,29.93,North,0,4.5,4.5,74,0.00,OVC,,0.00,WeatherDisplay:10.37,2013-02-16 08:25:00,
2013-02-16 03:30:00,37.0,29.5,29.93,NNE,22,3.5,3.5,74,0.00,OVC,,0.00,WeatherDisplay:10.37,2013-02-16 08:30:00,
2013-02-16 03:35:00,36.9,29.3,29.93,NNE,22,3.5,3.5,74,0.00,OVC,,0.00,WeatherDisplay:10.37,2013-02-16 08:35:00,
2013-02-16 03:40:00,36.9,29.3,29.93,NE,45,3.5,3.5,74,0.00,OVC,,0.00,WeatherDisplay:10.37,2013-02-16 08:40:00,
2013-02-16 03:45:00,36.7,29.2,29.92,North,0,0.0,0.0,74,0.00,OVC,,0.00,WeatherDisplay:10.37,2013-02-16 08:45:00,
2013-02-16 03:50:00,36.7,29.2,29.92,NNE,22,3.5,3.5,74,0.00,OVC,,0.00,WeatherDisplay:10.37,2013-02-16 08:50:00,
2013-02-16 03:55:00,36.7,28.8,29.92,NNE,22,4.6,4.6,73,0.00,OVC,,0.00,WeatherDisplay:10.37,2013-02-16 08:55:00,
2013-02-16 04:00:00,36.7,28.8,29.92,North,0,5.8,5.8,73,0.00,OVC,,0.00,WeatherDisplay:10.37,2013-02-16 09:00:00,
2013-02-16 04:05:00,36.5,28.7,29.92,North,0,2.0,2.0,73,0.00,OVC,,0.00,WeatherDisplay:10.37,2013-02-16 09:05:00,
2013-02-16 04:11:00,36.3,28.5,29.92,NNE,22,4.9,4.9,73,0.00,OVC,,0.00,WeatherDisplay:10.37,2013-02-16 09:11:00,
2013-02-16 04:16:00,36.3,28.5,29.92,ENE,68,4.6,4.6,73,0.00,OVC,,0.00,WeatherDisplay:10.37,2013-02-16 09:16:00,
2013-02-16 04:21:00,36.3,28.5,29.92,ENE,68,3.1,3.1,73,0.00,OVC,,0.00,WeatherDisplay:10.37,2013-02-16 09:21:00,
2013-02-16 04:26:00,36.3,28.5,29.92,ENE,68,0.0,0.0,73,0.00,OVC,,0.00,WeatherDisplay:10.37,2013-02-16 09:26:00,
2013-02-16 04:31:00,36.3,28.5,29.92,NE,45,0.0,0.0,73,0.00,OVC,,0.00,WeatherDisplay:10.37,2013-02-16 09:31:00,
2013-02-16 04:36:00,36.3,28.5,29.92,NW,315,4.6,4.6,73,0.00,OVC,,0.00,WeatherDisplay:10.37,2013-02-16 09:36:00,
2013-02-16 04:41:00,36.3,28.5,29.91,North,0,0.0,0.0,73,0.00,OVC,,0.00,WeatherDisplay:10.37,2013-02-16 09:41:00,
2013-02-16 04:46:00,36.3,28.5,29.92,NE,45,5.8,5.8,73,0.00,OVC,,0.00,WeatherDisplay:10.37,2013-02-16 09:46:00,
2013-02-16 04:51:00,36.3,28.5,29.92,North,0,5.8,5.8,73,0.00,OVC,,0.00,WeatherDisplay:10.37,2013-02-16 09:51:00,
2013-02-16 04:56:00,36.1,28.3,29.92,NNW,338,3.5,3.5,73,0.00,OVC,,0.00,WeatherDisplay:10.37,2013-02-16 09:56:00,
2013-02-16 05:01:00,36.1,28.3,29.92,NE,45,4.7,4.7,73,0.00,OVC,,0.00,WeatherDisplay:10.37,2013-02-16 10:01:00,
2013-02-16 05:06:00,36.1,28.3,29.92,North,0,3.5,3.5,73,0.00,OVC,,0.00,WeatherDisplay:10.37,2013-02-16 10:06:00,
2013-02-16 05:11:00,36.0,28.1,29.92,North,0,0.0,0.0,73,0.00,OVC,,0.00,WeatherDisplay:10.37,2013-02-16 10:11:00,
2013-02-16 05:16:00,36.1,28.3,29.92,NNE,22,2.3,2.3,73,0.00,OVC,,0.00,WeatherDisplay:10.37,2013-02-16 10:16:00,
2013-02-16 05:21:00,36.1,28.3,29.92,NNW,338,2.3,2.3,73,0.00,OVC,,0.00,WeatherDisplay:10.37,2013-02-16 10:21:00,
2013-02-16 05:27:00,36.0,28.1,29.92,NW,315,5.8,5.8,73,0.00,OVC,,0.00,WeatherDisplay:10.37,2013-02-16 10:27:00,
2013-02-16 05:32:00,36.0,28.5,29.92,North,0,0.0,0.0,74,0.00,OVC,,0.00,WeatherDisplay:10.37,2013-02-16 10:32:00,
2013-02-16 05:37:00,36.1,28.3,29.92,North,0,3.5,3.5,73,0.00,OVC,,0.00,WeatherDisplay:10.37,2013-02-16 10:37:00,
2013-02-16 05:42:00,36.0,28.1,29.92,NNE,22,3.5,3.5,73,0.00,OVC,,0.00,WeatherDisplay:10.37,2013-02-16 10:42:00,
2013-02-16 05:47:00,36.0,28.1,29.92,NW,315,6.9,6.9,73,0.00,OVC,,0.00,WeatherDisplay:10.37,2013-02-16 10:47:00,
2013-02-16 05:52:00,36.0,28.1,29.92,North,0,0.0,0.0,73,0.00,OVC,,0.00,WeatherDisplay:10.37,2013-02-16 10:52:00,
2013-02-16 05:57:00,35.8,28.0,29.92,North,0,3.5,3.5,73,0.00,OVC,,0.00,WeatherDisplay:10.37,2013-02-16 10:57:00,
2013-02-16 06:02:00,35.8,28.0,29.92,North,0,0.0,0.0,73,0.00,OVC,,0.00,WeatherDisplay:10.37,2013-02-16 11:02:00,
2013-02-16 06:07:00,36.0,28.5,29.93,North,0,0.0,0.0,74,0.00,OVC,,0.00,WeatherDisplay:10.37,2013-02-16 11:07:00,
2013-02-16 06:12:00,36.0,28.5,29.92,North,0,0.0,0.0,74,0.00,OVC,,0.00,WeatherDisplay:10.37,2013-02-16 11:12:00,
2013-02-16 06:17:00,36.0,28.5,29.92,ENE,68,3.5,3.5,74,0.00,OVC,,0.00,WeatherDisplay:10.37,2013-02-16 11:17:00,
2013-02-16 06:22:00,35.8,28.0,29.92,ENE,68,2.3,2.3,73,0.00,OVC,,0.00,WeatherDisplay:10.37,2013-02-16 11:22:00,
2013-02-16 06:27:00,35.8,28.3,29.92,North,0,0.0,0.0,74,0.00,OVC,,0.00,WeatherDisplay:10.37,2013-02-16 11:27:00,
2013-02-16 06:32:00,35.8,28.3,29.92,North,0,0.0,0.0,74,0.00,OVC,,0.00,WeatherDisplay:10.37,2013-02-16 11:32:00,
2013-02-16 06:37:00,35.8,28.3,29.92,NNE,22,0.0,0.0,74,0.00,OVC,,0.00,WeatherDisplay:10.37,2013-02-16 11:37:00,
2013-02-16 06:43:00,35.8,28.3,29.92,NNE,22,0.0,0.0,74,0.00,OVC,,0.00,WeatherDisplay:10.37,2013-02-16 11:43:00,
2013-02-16 06:48:00,35.8,28.3,29.92,NNE,22,0.0,0.0,74,0.00,OVC,,0.00,WeatherDisplay:10.37,2013-02-16 11:48:00,
2013-02-16 06:53:00,35.8,28.6,29.92,NNE,22,0.0,0.0,75,0.00,OVC,,0.00,WeatherDisplay:10.37,2013-02-16 11:53:00,
2013-02-16 06:58:00,35.8,28.6,29.92,NNE,22,0.0,0.0,75,0.00,OVC,,0.00,WeatherDisplay:10.37,2013-02-16 11:58:00,
2013-02-16 07:03:00,35.8,28.6,29.92,NNE,22,0.0,0.0,75,0.00,OVC,,0.00,WeatherDisplay:10.37,2013-02-16 12:03:00,
2013-02-16 07:08:00,35.8,28.6,29.92,NNE,22,0.0,0.0,75,0.00,OVC,,0.00,WeatherDisplay:10.37,2013-02-16 12:08:00,
2013-02-16 07:13:00,35.4,28.6,29.92,NNE,22,0.0,0.0,76,0.00,OVC,,0.00,WeatherDisplay:10.37,2013-02-16 12:13:00,
2013-02-16 07:18:00,35.4,28.6,29.91,NNE,22,0.0,0.0,76,0.00,OVC,,0.00,WeatherDisplay:10.37,2013-02-16 12:18:00,
2013-02-16 07:23:00,35.4,28.6,29.91,NNE,22,0.0,0.0,76,0.00,OVC,,0.00,WeatherDisplay:10.37,2013-02-16 12:23:00,
2013-02-16 07:28:00,35.4,28.9,29.91,NNE,22,0.0,0.0,77,0.00,OVC,,0.00,WeatherDisplay:10.37,2013-02-16 12:28:00,
2013-02-16 07:33:00,35.4,28.9,29.91,NNE,22,0.0,0.0,77,0.00,OVC,,0.00,WeatherDisplay:10.37,2013-02-16 12:33:00,
2013-02-16 07:38:00,35.4,28.9,29.91,NNE,22,0.0,0.0,77,0.00,OVC,,0.00,WeatherDisplay:10.37,2013-02-16 12:38:00,
2013-02-16 07:43:00,35.6,29.1,29.91,NNE,22,0.0,0.0,77,0.00,OVC,,0.00,WeatherDisplay:10.37,2013-02-16 12:43:00,
2013-02-16 07:48:00,35.8,29.3,29.91,NNE,22,0.0,0.0,77,0.00,OVC,,0.00,WeatherDisplay:10.37,2013-02-16 12:48:00,
2013-02-16 07:53:00,35.8,29.0,29.91,NNE,22,0.0,0.0,76,0.00,OVC,,0.00,WeatherDisplay:10.37,2013-02-16 12:53:00,
2013-02-16 07:59:00,35.4,28.6,29.92,NNW,338,0.0,0.0,76,0.00,OVC,,0.00,WeatherDisplay:10.37,2013-02-16 12:59:00,
2013-02-16 08:04:00,35.6,28.8,29.91,NNW,338,0.0,0.0,76,0.00,OVC,,0.00,WeatherDisplay:10.37,2013-02-16 13:04:00,
2013-02-16 08:09:00,35.6,28.8,29.91,NNW,338,0.0,0.0,76,0.00,OVC,,0.00,WeatherDisplay:10.37,2013-02-16 13:09:00,
2013-02-16 08:14:00,35.8,29.0,29.91,NNW,338,0.0,0.0,76,0.00,OVC,,0.00,WeatherDisplay:10.37,2013-02-16 13:14:00,
2013-02-16 08:19:00,35.8,29.0,29.91,NNW,338,0.0,0.0,76,0.00,OVC,,0.00,WeatherDisplay:10.37,2013-02-16 13:19:00,
2013-02-16 08:24:00,35.8,29.0,29.91,NNW,338,0.0,0.0,76,0.00,OVC,,0.00,WeatherDisplay:10.37,2013-02-16 13:24:00,
2013-02-16 08:29:00,35.8,29.0,29.91,NNW,338,0.0,0.0,76,0.00,OVC,,0.00,WeatherDisplay:10.37,2013-02-16 13:29:00,
2013-02-16 08:34:00,35.8,29.0,29.91,North,0,0.0,0.0,76,0.00,OVC,,0.00,WeatherDisplay:10.37,2013-02-16 13:34:00,
2013-02-16 08:39:00,35.8,28.6,29.91,ENE,68,3.5,3.5,75,0.00,OVC,,0.00,WeatherDisplay:10.37,2013-02-16 13:39:00,
2013-02-16 08:44:00,35.8,28.6,29.91,North,0,0.0,0.0,75,0.00,OVC,,0.00,WeatherDisplay:10.37,2013-02-16 13:44:00,
2013-02-16 08:49:00,36.0,28.8,29.92,NE,45,0.0,0.0,75,0.00,OVC,,0.00,WeatherDisplay:10.37,2013-02-16 13:49:00,
2013-02-16 08:54:00,36.0,28.8,29.91,NNE,22,1.1,0.0,75,0.00,OVC,,0.00,WeatherDisplay:10.37,2013-02-16 13:54:00,
2013-02-16 08:59:00,36.3,29.2,29.91,NE,45,2.3,2.3,75,0.00,OVC,,0.00,WeatherDisplay:10.37,2013-02-16 13:59:00,
2013-02-16 09:04:00,36.3,29.2,29.91,NNE,22,4.6,4.6,75,0.00,OVC,,0.00,WeatherDisplay:10.37,2013-02-16 14:04:00,
2013-02-16 09:09:00,36.3,29.2,29.91,North,0,2.3,2.3,75,0.00,OVC,,0.00,WeatherDisplay:10.37,2013-02-16 14:09:00,
2013-02-16 09:15:00,36.5,29.3,29.91,East,90,0.0,0.0,75,0.00,OVC,,0.00,WeatherDisplay:10.37,2013-02-16 14:15:00,
2013-02-16 09:20:00,36.3,28.8,29.90,NE,45,3.5,4.9,74,0.00,OVC,,0.00,WeatherDisplay:10.37,2013-02-16 14:20:00,
2013-02-16 09:25:00,36.3,28.8,29.91,NE,45,5.8,5.8,74,0.00,OVC,,0.00,WeatherDisplay:10.37,2013-02-16 14:25:00,
2013-02-16 09:30:00,36.3,28.8,29.90,NE,50,3.0,9.0,74,0.00,OVC,,0.00,WeatherDisplay:10.37,2013-02-16 14:30:00,
2013-02-16 09:35:00,36.5,29.0,29.90,NNE,22,5.8,5.8,74,0.00,OVC,,0.00,WeatherDisplay:10.37,2013-02-16 14:35:00,
2013-02-16 09:40:00,36.7,29.2,29.90,NNE,22,8.1,8.1,74,0.00,OVC,,0.00,WeatherDisplay:10.37,2013-02-16 14:40:00,
2013-02-16 09:45:00,37.0,29.5,29.90,ENE,68,6.9,6.9,74,0.00,OVC,,0.00,WeatherDisplay:10.37,2013-02-16 14:45:00,
2013-02-16 09:50:00,37.2,29.7,29.89,ENE,68,4.7,6.7,74,0.00,OVC,,0.00,WeatherDisplay:10.37,2013-02-16 14:50:00,
2013-02-16 09:55:00,37.2,29.4,29.89,East,90,6.9,6.9,73,0.00,OVC,,0.00,WeatherDisplay:10.37,2013-02-16 14:55:00,
2013-02-16 10:00:00,37.2,29.4,29.89,East,90,2.3,2.3,73,0.00,OVC,,0.00,WeatherDisplay:10.37,2013-02-16 15:00:00,
2013-02-16 10:05:00,37.0,29.2,29.90,NNE,22,6.9,6.9,73,0.00,OVC,,0.00,WeatherDisplay:10.37,2013-02-16 15:05:00,
2013-02-16 10:10:00,37.0,29.2,29.90,North,0,4.6,4.6,73,0.00,OVC,,0.00,WeatherDisplay:10.37,2013-02-16 15:10:00,
2013-02-16 10:15:00,37.2,29.4,29.90,North,0,4.6,4.6,73,0.00,OVC,,0.00,WeatherDisplay:10.37,2013-02-16 15:15:00,
2013-02-16 10:20:00,37.0,29.5,29.90,NE,45,3.5,3.5,74,0.00,OVC,,0.00,WeatherDisplay:10.37,2013-02-16 15:20:00,
2013-02-16 10:25:00,37.2,29.4,29.89,East,90,5.8,5.8,73,0.00,OVC,,0.00,WeatherDisplay:10.37,2013-02-16 15:25:00,
2013-02-16 10:30:00,37.0,29.2,29.89,ENE,68,5.8,5.8,73,0.00,OVC,,0.00,WeatherDisplay:10.37,2013-02-16 15:30:00,
2013-02-16 10:35:00,37.0,29.2,29.89,East,90,6.9,6.9,73,0.00,OVC,,0.00,WeatherDisplay:10.37,2013-02-16 15:35:00,
2013-02-16 10:41:00,36.9,28.7,29.89,ENE,68,4.6,4.6,72,0.00,OVC,,0.00,WeatherDisplay:10.37,2013-02-16 15:41:00,
2013-02-16 10:46:00,36.7,28.8,29.89,NE,45,4.6,4.6,73,0.00,OVC,,0.00,WeatherDisplay:10.37,2013-02-16 15:46:00,
2013-02-16 10:51:00,36.7,28.5,29.89,North,0,5.8,5.8,72,0.00,OVC,,0.00,WeatherDisplay:10.37,2013-02-16 15:51:00,
2013-02-16 10:56:00,36.5,28.3,29.89,NNE,22,3.5,3.5,72,0.00,OVC,,0.00,WeatherDisplay:10.37,2013-02-16 15:56:00,
2013-02-16 11:01:00,36.3,28.2,29.89,East,90,6.7,6.7,72,0.00,OVC,,0.00,WeatherDisplay:10.37,2013-02-16 16:01:00,
2013-02-16 11:06:00,36.1,28.0,29.89,ENE,68,4.6,4.6,72,0.00,OVC,,0.00,WeatherDisplay:10.37,2013-02-16 16:06:00,
2013-02-16 11:11:00,36.0,27.8,29.89,NE,45,4.6,4.6,72,0.00,OVC,,0.00,WeatherDisplay:10.37,2013-02-16 16:11:00,
2013-02-16 11:16:00,36.0,28.1,29.89,NNE,22,5.8,5.8,73,0.00,OVC,,0.00,WeatherDisplay:10.37,2013-02-16 16:16:00,
2013-02-16 11:21:00,36.1,28.6,29.89,NNE,22,9.2,9.2,74,0.00,OVC,,0.00,WeatherDisplay:10.37,2013-02-16 16:21:00,
2013-02-16 11:26:00,36.1,28.6,29.89,NE,45,5.8,5.8,74,0.00,OVC,,0.00,WeatherDisplay:10.37,2013-02-16 16:26:00,
2013-02-16 11:31:00,36.0,28.8,29.89,NNW,338,6.9,6.9,75,0.00,OVC,,0.00,WeatherDisplay:10.37,2013-02-16 16:31:00,
2013-02-16 11:36:00,35.8,28.6,29.89,ENE,68,4.6,4.6,75,0.00,OVC,,0.00,WeatherDisplay:10.37,2013-02-16 16:36:00,
2013-02-16 11:41:00,35.6,28.8,29.88,NE,45,8.1,8.1,76,0.00,OVC,,0.00,WeatherDisplay:10.37,2013-02-16 16:41:00,
2013-02-16 11:48:00,35.4,28.6,29.88,NNW,338,10.7,10.7,76,0.00,CLR,,0.00,WeatherDisplay:10.37,2013-02-16 16:48:00,
2013-02-16 11:53:00,35.2,28.8,29.88,North,0,4.6,4.6,77,0.00,OVC,,0.00,WeatherDisplay:10.37,2013-02-16 16:53:00,
2013-02-16 11:58:00,34.9,28.7,29.88,NNE,22,0.0,0.0,78,0.00,OVC,,0.00,WeatherDisplay:10.37,2013-02-16 16:58:00,
2013-02-16 12:03:00,34.9,29.0,29.88,ENE,68,0.0,0.0,79,0.00,OVC,,0.00,WeatherDisplay:10.37,2013-02-16 17:03:00,
2013-02-16 12:08:00,34.9,29.0,29.88,North,0,0.0,0.0,79,0.00,OVC,,0.00,WeatherDisplay:10.37,2013-02-16 17:08:00,
2013-02-16 12:13:00,34.9,29.3,29.88,NNE,22,0.0,0.0,80,0.00,OVC,,0.00,WeatherDisplay:10.37,2013-02-16 17:13:00,
2013-02-16 12:18:00,34.9,29.3,29.88,ENE,68,0.0,0.0,80,0.00,OVC,,0.00,WeatherDisplay:10.37,2013-02-16 17:18:00,
2013-02-16 12:23:00,34.9,29.3,29.88,NNE,22,0.0,0.0,80,0.00,OVC,,0.00,WeatherDisplay:10.37,2013-02-16 17:23:00,
2013-02-16 12:28:00,34.9,29.3,29.88,NE,45,0.0,0.0,80,0.00,OVC,,0.00,WeatherDisplay:10.37,2013-02-16 17:28:00,
2013-02-16 12:33:00,34.7,29.2,29.88,NNE,22,0.0,0.0,80,0.00,OVC,,0.00,WeatherDisplay:10.37,2013-02-16 17:33:00,
2013-02-16 12:38:00,34.7,29.2,29.87,North,0,0.0,0.0,80,0.00,OVC,,0.00,WeatherDisplay:10.37,2013-02-16 17:38:00,
2013-02-16 12:43:00,34.7,29.2,29.87,NE,45,0.0,0.0,80,0.00,OVC,,0.00,WeatherDisplay:10.37,2013-02-16 17:43:00,
2013-02-16 12:48:00,34.7,29.2,29.87,NNW,338,14.5,14.5,80,0.00,OVC,,0.00,WeatherDisplay:10.37,2013-02-16 17:48:00,
2013-02-16 12:53:00,34.5,29.0,29.87,North,0,5.8,5.8,80,0.00,OVC,,0.00,WeatherDisplay:10.37,2013-02-16 17:53:00,
2013-02-16 12:59:00,34.3,29.1,29.87,NNE,22,10.4,10.4,81,0.00,OVC,,0.00,WeatherDisplay:10.37,2013-02-16 17:59:00,
2013-02-16 13:04:00,34.3,29.1,29.87,North,0,11.5,11.5,81,0.00,OVC,,0.00,WeatherDisplay:10.37,2013-02-16 18:04:00,
2013-02-16 13:09:00,34.2,28.9,29.86,NE,45,4.6,4.6,81,0.00,OVC,,0.00,WeatherDisplay:10.37,2013-02-16 18:09:00,
2013-02-16 13:14:00,34.0,28.8,29.86,NNE,22,8.1,8.1,81,0.00,OVC,,0.00,WeatherDisplay:10.37,2013-02-16 18:14:00,
2013-02-16 13:19:00,33.8,28.6,29.86,NNE,22,11.5,11.5,81,0.00,OVC,,0.00,WeatherDisplay:10.37,2013-02-16 18:19:00,
2013-02-16 13:24:00,34.0,29.1,29.86,NE,45,13.8,13.8,82,0.00,OVC,,0.00,WeatherDisplay:10.37,2013-02-16 18:24:00,
2013-02-16 13:29:00,33.8,28.9,29.85,NNE,22,9.2,9.2,82,0.00,OVC,,0.00,WeatherDisplay:10.37,2013-02-16 18:29:00,
2013-02-16 13:34:00,33.8,28.9,29.85,North,0,10.4,10.4,82,0.00,OVC,,0.00,WeatherDisplay:10.37,2013-02-16 18:34:00,
2013-02-16 13:39:00,33.8,28.9,29.85,NE,45,8.1,8.1,82,0.00,OVC,,0.00,WeatherDisplay:10.37,2013-02-16 18:39:00,
2013-02-16 13:44:00,34.0,29.1,29.85,North,0,12.7,12.7,82,0.00,OVC,,0.00,WeatherDisplay:10.37,2013-02-16 18:44:00,
2013-02-16 13:49:00,34.0,29.1,29.85,NNE,22,4.6,4.6,82,0.00,OVC,,0.00,WeatherDisplay:10.37,2013-02-16 18:49:00,
2013-02-16 13:54:00,33.6,28.7,29.85,NNE,22,5.8,5.8,82,0.00,OVC,,0.00,WeatherDisplay:10.37,2013-02-16 18:54:00,
2013-02-16 13:59:00,33.6,28.7,29.85,NE,45,4.6,4.6,82,0.00,OVC,,0.00,WeatherDisplay:10.37,2013-02-16 18:59:00,
2013-02-16 14:04:00,33.6,28.7,29.85,NNE,22,5.8,5.8,82,0.00,OVC,,0.00,WeatherDisplay:10.37,2013-02-16 19:04:00,
2013-02-16 14:09:00,33.6,28.7,29.85,North,0,5.8,5.8,82,0.00,OVC,,0.00,WeatherDisplay:10.37,2013-02-16 19:09:00,
2013-02-16 14:15:00,33.8,28.9,29.84,North,0,6.9,6.9,82,0.00,OVC,,0.00,WeatherDisplay:10.37,2013-02-16 19:15:00,
2013-02-16 14:20:00,34.0,29.1,29.84,North,0,2.3,2.3,82,0.00,OVC,,0.00,WeatherDisplay:10.37,2013-02-16 19:20:00,
2013-02-16 14:25:00,34.2,29.5,29.84,North,0,4.6,4.6,83,0.00,OVC,,0.00,WeatherDisplay:10.37,2013-02-16 19:25:00,
2013-02-16 14:30:00,34.3,29.4,29.84,NNE,13,1.0,5.0,82,0.00,OVC,,0.00,WeatherDisplay:10.37,2013-02-16 19:30:00,
2013-02-16 14:35:00,34.3,29.4,29.84,North,0,8.1,8.1,82,0.00,OVC,,0.00,WeatherDisplay:10.37,2013-02-16 19:35:00,
2013-02-16 14:40:00,34.5,29.3,29.84,NE,45,12.7,12.7,81,0.00,OVC,,0.00,WeatherDisplay:10.37,2013-02-16 19:40:00,
2013-02-16 14:45:00,34.5,29.0,29.84,North,0,11.5,11.5,80,0.00,OVC,,0.00,WeatherDisplay:10.37,2013-02-16 19:45:00,
2013-02-16 14:50:00,34.3,28.2,29.84,North,0,11.5,11.5,78,0.00,OVC,,0.00,WeatherDisplay:10.37,2013-02-16 19:50:00,
2013-02-16 14:55:00,34.3,28.2,29.84,North,0,10.4,10.4,78,0.00,OVC,,0.00,WeatherDisplay:10.37,2013-02-16 19:55:00,
2013-02-16 15:00:00,34.2,27.7,29.84,NE,45,11.5,11.5,77,0.00,OVC,,0.00,WeatherDisplay:10.37,2013-02-16 20:00:00,
2013-02-16 15:05:00,34.3,27.9,29.84,North,0,11.2,11.2,77,0.00,OVC,,0.00,WeatherDisplay:10.37,2013-02-16 20:05:00,
2013-02-16 15:10:00,34.2,27.4,29.85,North,0,9.2,9.2,76,0.00,OVC,,0.00,WeatherDisplay:10.37,2013-02-16 20:10:00,
2013-02-16 15:15:00,34.2,27.1,29.85,NNE,22,11.5,11.5,75,0.00,OVC,,0.00,WeatherDisplay:10.37,2013-02-16 20:15:00,
2013-02-16 15:20:00,34.0,26.9,29.85,WSW,248,5.8,5.8,75,0.00,OVC,,0.00,WeatherDisplay:10.37,2013-02-16 20:20:00,
2013-02-16 15:25:00,34.2,26.7,29.85,North,0,5.8,5.8,74,0.00,OVC,,0.00,WeatherDisplay:10.37,2013-02-16 20:25:00,
2013-02-16 15:31:00,34.3,26.6,29.85,NNE,22,4.6,4.6,73,0.00,OVC,,0.00,WeatherDisplay:10.37,2013-02-16 20:31:00,
2013-02-16 15:36:00,34.5,27.1,29.84,WSW,248,3.5,3.5,74,0.00,OVC,,0.00,WeatherDisplay:10.37,2013-02-16 20:36:00,
2013-02-16 15:41:00,34.9,27.1,29.84,NNW,338,9.2,9.2,73,0.00,OVC,,0.00,WeatherDisplay:10.37,2013-02-16 20:41:00,
2013-02-16 15:46:00,35.2,27.1,29.85,North,0,6.9,6.9,72,0.00,OVC,,0.00,WeatherDisplay:10.37,2013-02-16 20:46:00,
2013-02-16 15:51:00,35.2,26.4,29.85,North,0,5.8,5.8,70,0.00,OVC,,0.00,WeatherDisplay:10.37,2013-02-16 20:51:00,
2013-02-16 15:56:00,35.2,26.4,29.85,West,270,10.4,10.4,70,0.00,OVC,,0.00,WeatherDisplay:10.37,2013-02-16 20:56:00,
2013-02-16 16:01:00,35.2,26.1,29.85,North,0,6.9,6.9,69,0.00,OVC,,0.00,WeatherDisplay:10.37,2013-02-16 21:01:00,
2013-02-16 16:06:00,35.2,25.4,29.85,North,0,10.5,10.5,67,0.00,OVC,,0.00,WeatherDisplay:10.37,2013-02-16 21:06:00,
2013-02-16 16:11:00,34.9,24.7,29.85,NE,45,15.0,15.0,66,0.00,OVC,,0.00,WeatherDisplay:10.37,2013-02-16 21:11:00,
2013-02-16 16:16:00,34.7,24.5,29.85,NNE,22,19.6,19.6,66,0.00,OVC,,0.00,WeatherDisplay:10.37,2013-02-16 21:16:00,
2013-02-16 16:21:00,34.3,23.8,29.85,North,0,13.8,13.8,65,0.00,OVC,,0.00,WeatherDisplay:10.37,2013-02-16 21:21:00,
2013-02-16 16:26:00,34.2,23.6,29.85,NNW,338,10.4,10.4,65,0.00,OVC,,0.00,WeatherDisplay:10.37,2013-02-16 21:26:00,
2013-02-16 16:31:00,34.0,23.1,29.85,North,0,4.6,4.6,64,0.00,OVC,,0.00,WeatherDisplay:10.37,2013-02-16 21:31:00,
2013-02-16 16:36:00,34.0,23.1,29.86,NNE,22,8.9,8.9,64,0.00,OVC,,0.00,WeatherDisplay:10.37,2013-02-16 21:36:00,
2013-02-16 16:41:00,33.8,22.5,29.86,NE,45,11.5,11.5,63,0.00,OVC,,0.00,WeatherDisplay:10.37,2013-02-16 21:41:00,
2013-02-16 16:47:00,33.6,22.4,29.86,North,0,9.2,9.2,63,0.00,OVC,,0.00,WeatherDisplay:10.37,2013-02-16 21:47:00,
2013-02-16 16:52:00,33.6,22.4,29.86,ENE,68,3.1,3.1,63,0.00,OVC,,0.00,WeatherDisplay:10.37,2013-02-16 21:52:00,
2013-02-16 16:57:00,33.4,22.2,29.87,WSW,248,5.6,5.6,63,0.00,OVC,,0.00,WeatherDisplay:10.37,2013-02-16 21:57:00,
2013-02-16 17:02:00,33.3,22.0,29.87,WSW,248,3.5,3.5,63,0.00,FEW,,0.00,WeatherDisplay:10.37,2013-02-16 22:02:00,
2013-02-16 17:07:00,33.3,22.0,29.87,WSW,248,5.8,5.8,63,0.00,FEW,,0.00,WeatherDisplay:10.37,2013-02-16 22:07:00,
2013-02-16 17:12:00,33.3,21.6,29.87,WSW,248,6.9,6.9,62,0.00,FEW,,0.00,WeatherDisplay:10.37,2013-02-16 22:12:00,
2013-02-16 17:17:00,33.1,21.5,29.88,WSW,248,20.7,20.7,62,0.00,FEW,,0.00,WeatherDisplay:10.37,2013-02-16 22:17:00,
2013-02-16 17:22:00,32.9,21.3,29.87,NNE,22,11.5,11.5,62,0.00,FEW,,0.00,WeatherDisplay:10.37,2013-02-16 22:22:00,
2013-02-16 17:27:00,32.7,21.1,29.88,WSW,248,2.3,2.3,62,0.00,FEW,,0.00,WeatherDisplay:10.37,2013-02-16 22:27:00,
2013-02-16 17:32:00,32.5,21.0,29.88,NNE,22,10.4,10.4,62,0.00,FEW,,0.00,WeatherDisplay:10.37,2013-02-16 22:32:00,
2013-02-16 17:37:00,32.5,21.0,29.88,NW,315,0.0,0.0,62,0.00,FEW,,0.00,WeatherDisplay:10.37,2013-02-16 22:37:00,
2013-02-16 17:42:00,32.5,21.0,29.89,NE,45,6.9,6.9,62,0.00,FEW,,0.00,WeatherDisplay:10.37,2013-02-16 22:42:00,
2013-02-16 17:47:00,32.2,20.6,29.89,NE,45,6.9,6.9,62,0.00,FEW,,0.00,WeatherDisplay:10.37,2013-02-16 22:47:00,
2013-02-16 17:52:00,32.0,20.1,29.89,North,0,8.1,8.1,61,0.00,FEW,,0.00,WeatherDisplay:10.37,2013-02-16 22:52:00,
2013-02-16 17:57:00,31.8,19.9,29.89,North,0,3.5,0.0,61,0.00,FEW,,0.00,WeatherDisplay:10.37,2013-02-16 22:57:00,
2013-02-16 18:03:00,31.6,19.7,29.89,North,0,1.1,1.6,61,0.00,FEW,,0.00,WeatherDisplay:10.37,2013-02-16 23:03:00,
2013-02-16 18:08:00,31.6,19.7,29.89,NNE,22,6.9,6.9,61,0.00,FEW,,0.00,WeatherDisplay:10.37,2013-02-16 23:08:00,
2013-02-16 18:13:00,31.5,19.5,29.90,WNW,292,0.0,0.3,61,0.00,FEW,,0.00,WeatherDisplay:10.37,2013-02-16 23:13:00,
2013-02-16 18:18:00,31.3,19.4,29.90,NNE,22,3.5,3.5,61,0.00,FEW,,0.00,WeatherDisplay:10.37,2013-02-16 23:18:00,
2013-02-16 18:23:00,31.3,19.4,29.90,NE,45,1.1,0.0,61,0.00,FEW,,0.00,WeatherDisplay:10.37,2013-02-16 23:23:00,
2013-02-16 18:28:00,31.1,19.2,29.90,North,0,4.6,4.6,61,0.00,FEW,,0.00,WeatherDisplay:10.37,2013-02-16 23:28:00,
2013-02-16 18:33:00,30.9,19.0,29.91,NNW,338,3.5,3.5,61,0.00,FEW,,0.00,WeatherDisplay:10.37,2013-02-16 23:33:00,
2013-02-16 18:38:00,30.7,18.9,29.90,NW,315,3.5,3.5,61,0.00,FEW,,0.00,WeatherDisplay:10.37,2013-02-16 23:38:00,
2013-02-16 18:43:00,30.7,19.2,29.91,NNE,22,5.8,5.8,62,0.00,FEW,,0.00,WeatherDisplay:10.37,2013-02-16 23:43:00,
2013-02-16 18:48:00,30.7,19.2,29.91,North,0,5.6,5.6,62,0.00,FEW,,0.00,WeatherDisplay:10.37,2013-02-16 23:48:00,
2013-02-16 18:53:00,30.6,19.1,29.91,NNE,22,5.8,5.8,62,0.00,FEW,,0.00,WeatherDisplay:10.37,2013-02-16 23:53:00,
2013-02-16 18:58:00,30.4,18.9,29.91,North,0,5.8,5.8,62,0.00,FEW,,0.00,WeatherDisplay:10.37,2013-02-16 23:58:00,
2013-02-16 19:03:00,30.2,18.7,29.91,NNW,338,9.2,9.2,62,0.00,FEW,,0.00,WeatherDisplay:10.37,2013-02-17 00:03:00,
2013-02-16 19:08:00,30.0,18.6,29.91,NNE,22,10.4,14.2,62,0.00,FEW,,0.00,WeatherDisplay:10.37,2013-02-17 00:08:00,
2013-02-16 19:13:00,30.0,18.9,29.92,NNE,22,6.9,7.0,63,0.00,FEW,,0.00,WeatherDisplay:10.37,2013-02-17 00:13:00,
2013-02-16 19:19:00,29.8,18.8,29.92,NNW,338,16.1,16.1,63,0.00,FEW,,0.00,WeatherDisplay:10.37,2013-02-17 00:19:00,
2013-02-16 19:24:00,29.7,18.6,29.92,NE,45,6.3,6.3,63,0.00,FEW,,0.00,WeatherDisplay:10.37,2013-02-17 00:24:00,
2013-02-16 19:29:00,29.5,18.8,29.92,NNW,338,2.3,2.3,64,0.00,FEW,,0.00,WeatherDisplay:10.37,2013-02-17 00:29:00,
2013-02-16 19:34:00,29.5,18.8,29.92,NE,45,13.8,13.8,64,0.00,FEW,,0.00,WeatherDisplay:10.37,2013-02-17 00:34:00,
2013-02-16 19:39:00,29.3,19.0,29.92,West,270,4.6,4.6,65,0.00,FEW,,0.00,WeatherDisplay:10.37,2013-02-17 00:39:00,
2013-02-16 19:44:00,29.1,18.8,29.92,NNW,338,3.5,0.0,65,0.00,FEW,,0.00,WeatherDisplay:10.37,2013-02-17 00:44:00,
2013-02-16 19:49:00,29.1,18.8,29.93,SW,225,0.0,0.0,65,0.00,FEW,,0.00,WeatherDisplay:10.37,2013-02-17 00:49:00,
2013-02-16 19:54:00,29.1,18.8,29.93,WSW,248,3.5,3.5,65,0.00,FEW,,0.00,WeatherDisplay:10.37,2013-02-17 00:54:00,
2013-02-16 19:59:00,28.9,18.6,29.93,NE,45,3.5,3.5,65,0.00,FEW,,0.00,WeatherDisplay:10.37,2013-02-17 00:59:00,
2013-02-16 20:04:00,28.8,18.5,29.93,West,270,3.5,3.5,65,0.00,CLR,,0.00,WeatherDisplay:10.37,2013-02-17 01:04:00,
2013-02-16 20:09:00,28.6,18.3,29.93,NW,315,2.3,2.3,65,0.00,CLR,,0.00,WeatherDisplay:10.37,2013-02-17 01:09:00,
2013-02-16 20:14:00,28.8,18.5,29.94,North,0,1.3,1.3,65,0.00,CLR,,0.00,WeatherDisplay:10.37,2013-02-17 01:14:00,
2013-02-16 20:19:00,28.6,18.3,29.94,NNE,22,2.0,2.0,65,0.00,CLR,,0.00,WeatherDisplay:10.37,2013-02-17 01:19:00,
2013-02-16 20:24:00,28.6,18.3,29.94,NNE,22,0.0,0.7,65,0.00,CLR,,0.00,WeatherDisplay:10.37,2013-02-17 01:24:00,
2013-02-16 20:29:00,28.6,18.3,29.95,North,0,2.3,2.3,65,0.00,CLR,,0.00,WeatherDisplay:10.37,2013-02-17 01:29:00,
2013-02-16 20:35:00,28.6,18.3,29.95,NE,45,0.0,0.0,65,0.00,CLR,,0.00,WeatherDisplay:10.37,2013-02-17 01:35:00,
2013-02-16 20:40:00,28.6,18.3,29.95,North,0,6.9,6.9,65,0.00,CLR,,0.00,WeatherDisplay:10.37,2013-02-17 01:40:00,
2013-02-16 20:45:00,28.6,18.3,29.95,NNE,22,3.5,3.5,65,0.00,CLR,,0.00,WeatherDisplay:10.37,2013-02-17 01:45:00,
2013-02-16 20:50:00,28.2,18.0,29.95,North,0,11.4,11.4,65,0.00,CLR,,0.00,WeatherDisplay:10.37,2013-02-17 01:50:00,
2013-02-16 20:55:00,28.0,17.8,29.96,SSW,202,5.8,5.8,65,0.00,CLR,,0.00,WeatherDisplay:10.37,2013-02-17 01:55:00,
2013-02-16 21:00:00,28.0,17.8,29.96,SE,135,5.8,0.0,65,0.00,CLR,,0.00,WeatherDisplay:10.37,2013-02-17 02:00:00,
2013-02-16 21:05:00,28.0,17.8,29.96,NNE,22,2.3,2.3,65,0.00,-SN,,0.00,WeatherDisplay:10.37,2013-02-17 02:05:00,
2013-02-16 21:10:00,28.0,17.8,29.96,NNW,338,9.2,9.2,65,0.00,-SN,,0.00,WeatherDisplay:10.37,2013-02-17 02:10:00,
2013-02-16 21:15:00,27.9,17.6,29.96,NNE,22,8.1,8.1,65,0.00,-SN,,0.00,WeatherDisplay:10.37,2013-02-17 02:15:00,
2013-02-16 21:20:00,27.7,17.4,29.96,NNE,22,19.6,19.6,65,0.00,-SN,,0.00,WeatherDisplay:10.37,2013-02-17 02:20:00,
2013-02-16 21:25:00,27.7,17.4,29.96,NNE,22,5.8,5.8,65,0.00,-SN,,0.00,WeatherDisplay:10.37,2013-02-17 02:25:00,
2013-02-16 21:30:00,27.7,17.4,29.96,WNW,292,0.0,0.0,65,0.00,-SN,,0.00,WeatherDisplay:10.37,2013-02-17 02:30:00,
2013-02-16 21:35:00,27.7,17.4,29.96,NNE,22,0.0,0.0,65,0.00,-SN,,0.00,WeatherDisplay:10.37,2013-02-17 02:35:00,
2013-02-16 21:40:00,27.7,17.4,29.96,North,0,0.0,0.0,65,0.00,-SN,,0.00,WeatherDisplay:10.37,2013-02-17 02:40:00,
2013-02-16 21:45:00,27.7,17.4,29.97,WNW,292,3.5,3.5,65,0.00,-SN,,0.00,WeatherDisplay:10.37,2013-02-17 02:45:00,
2013-02-16 21:51:00,27.7,17.4,29.97,WSW,248,0.0,0.0,65,0.00,-SN,,0.00,WeatherDisplay:10.37,2013-02-17 02:51:00,
2013-02-16 21:56:00,27.9,18.0,29.97,NW,315,1.1,0.0,66,0.00,-SN,,0.00,WeatherDisplay:10.37,2013-02-17 02:56:00,
2013-02-16 22:01:00,28.0,18.1,29.97,West,270,1.1,1.1,66,0.00,-SN,,0.00,WeatherDisplay:10.37,2013-02-17 03:01:00,
2013-02-16 22:06:00,28.0,18.1,29.97,NNW,338,0.0,0.1,66,0.00,OVC,,0.00,WeatherDisplay:10.37,2013-02-17 03:06:00,
2013-02-16 22:11:00,28.0,18.1,29.97,WSW,248,6.9,6.9,66,0.00,OVC,,0.00,WeatherDisplay:10.37,2013-02-17 03:11:00,
2013-02-16 22:16:00,28.0,18.5,29.97,WNW,292,6.9,6.9,67,0.00,OVC,,0.00,WeatherDisplay:10.37,2013-02-17 03:16:00,
2013-02-16 22:21:00,27.7,18.5,29.97,ENE,68,2.3,2.3,68,0.00,OVC,,0.00,WeatherDisplay:10.37,2013-02-17 03:21:00,
2013-02-16 22:26:00,27.7,18.5,29.97,WSW,248,1.1,1.1,68,0.00,OVC,,0.00,WeatherDisplay:10.37,2013-02-17 03:26:00,
2013-02-16 22:31:00,27.7,18.5,29.97,West,270,0.0,0.0,68,0.00,OVC,,0.00,WeatherDisplay:10.37,2013-02-17 03:31:00,
2013-02-16 22:36:00,27.7,18.8,29.97,West,270,3.5,3.5,69,0.00,OVC,,0.00,WeatherDisplay:10.37,2013-02-17 03:36:00,
2013-02-16 22:41:00,27.7,18.8,29.97,West,270,0.0,0.0,69,0.00,OVC,,0.00,WeatherDisplay:10.37,2013-02-17 03:41:00,
2013-02-16 22:47:00,27.5,18.7,29.98,West,270,0.0,0.0,69,0.00,OVC,,0.00,WeatherDisplay:10.37,2013-02-17 03:47:00,
2013-02-16 22:52:00,27.5,18.7,29.98,West,270,0.0,0.0,69,0.00,OVC,,0.00,WeatherDisplay:10.37,2013-02-17 03:52:00,
2013-02-16 22:57:00,27.3,18.8,29.98,NE,45,2.3,0.0,70,0.00,OVC,,0.00,WeatherDisplay:10.37,2013-02-17 03:57:00,
2013-02-16 23:02:00,27.3,18.8,29.98,NW,315,0.0,0.0,70,0.00,OVC,,0.00,WeatherDisplay:10.37,2013-02-17 04:02:00,
2013-02-16 23:07:00,27.3,18.8,29.97,NW,315,0.0,0.0,70,0.00,OVC,,0.00,WeatherDisplay:10.37,2013-02-17 04:07:00,
2013-02-16 23:12:00,27.3,18.8,29.97,North,0,3.5,3.5,70,0.00,OVC,,0.00,WeatherDisplay:10.37,2013-02-17 04:12:00,
2013-02-16 23:17:00,27.1,18.3,29.97,NNW,338,1.1,1.1,69,0.00,OVC,,0.00,WeatherDisplay:10.37,2013-02-17 04:17:00,
2013-02-16 23:22:00,27.1,18.3,29.97,West,270,2.3,0.0,69,0.00,OVC,,0.00,WeatherDisplay:10.37,2013-02-17 04:22:00,
2013-02-16 23:27:00,27.1,18.3,29.98,NNW,338,1.1,1.1,69,0.00,OVC,,0.00,WeatherDisplay:10.37,2013-02-17 04:27:00,
2013-02-16 23:32:00,27.1,18.0,29.98,West,270,2.3,2.3,68,0.00,OVC,,0.00,WeatherDisplay:10.37,2013-02-17 04:32:00,
2013-02-16 23:37:00,27.0,17.8,29.98,North,0,6.9,6.9,68,0.00,OVC,,0.00,WeatherDisplay:10.37,2013-02-17 04:37:00,
2013-02-16 23:42:00,27.0,17.5,29.98,West,270,0.0,0.0,67,0.00,OVC,,0.00,WeatherDisplay:10.37,2013-02-17 04:42:00,
2013-02-16 23:47:00,27.0,17.5,29.98,West,270,0.0,0.0,67,0.00,OVC,,0.00,WeatherDisplay:10.37,2013-02-17 04:47:00,
2013-02-16 23:52:00,27.1,17.6,29.98,West,270,0.0,0.0,67,0.00,OVC,,0.00,WeatherDisplay:10.37,2013-02-17 04:52:00,
2013-02-16 23:57:00,27.0,17.5,29.98,West,270,0.0,0.0,67,0.00,OVC,,0.00,WeatherDisplay:10.37,2013-02-17 04:57:00,